createdAt,value
2023-01-30T00:01:13.871Z,35.47
2023-01-30T00:21:13.869Z,35.54
2023-01-30T00:41:13.822Z,35.36
2023-01-30T01:01:13.842Z,35.38
2023-01-30T01:21:13.881Z,35.36
2023-01-30T01:41:13.861Z,35.36
2023-01-30T02:01:13.936Z,35.36
2023-01-30T02:21:13.785Z,35.36
2023-01-30T02:41:13.152Z,35.36
2023-01-30T03:01:13.801Z,35.36
2023-01-30T03:21:13.762Z,35.36
2023-01-30T03:41:13.741Z,35.36
2023-01-30T04:01:13.757Z,35.36
2023-01-30T04:21:13.743Z,35.36
2023-01-30T04:41:13.793Z,35.36
2023-01-30T05:01:13.713Z,35.36
2023-01-30T05:21:13.704Z,35.36
2023-01-30T05:41:13.665Z,35.36
2023-01-30T06:01:13.626Z,35.36
2023-01-30T06:21:13.635Z,35.37
2023-01-30T06:41:13.618Z,35.37
2023-01-30T07:01:13.615Z,35.38
2023-01-30T07:21:13.595Z,35.4
2023-01-30T07:41:13.579Z,35.43
2023-01-30T08:01:13.399Z,35.45
2023-01-30T08:21:13.531Z,35.47
2023-01-30T08:41:13.260Z,35.51
2023-01-30T09:01:13.562Z,35.54
2023-01-30T09:21:13.501Z,35.57
2023-01-30T09:41:13.476Z,35.59
2023-01-30T10:01:13.458Z,35.6
2023-01-30T10:21:13.436Z,35.61
2023-01-30T10:41:13.426Z,35.62
2023-01-30T11:01:13.398Z,35.62
2023-01-30T11:21:13.391Z,35.63
2023-01-30T11:41:13.351Z,35.64
2023-01-30T12:01:13.089Z,35.65
2023-01-30T12:21:13.346Z,35.66
2023-01-30T12:41:13.320Z,35.66
2023-01-30T13:01:13.316Z,35.67
2023-01-30T13:41:13.261Z,35.68
2023-01-30T15:41:13.182Z,35.68
2023-01-30T16:01:13.199Z,35.68
2023-01-30T16:21:12.873Z,35.68
2023-01-30T16:41:13.120Z,35.67
2023-01-30T17:01:13.223Z,35.68
2023-01-30T17:21:13.093Z,35.67
2023-01-30T17:41:13.051Z,35.68
2023-01-30T18:01:13.031Z,35.67
2023-01-30T18:21:12.759Z,35.67
2023-01-30T19:21:12.996Z,35.66
2023-01-30T19:41:12.980Z,35.66
2023-01-30T20:01:12.695Z,35.65
2023-01-30T20:21:12.977Z,35.66
2023-01-30T20:41:12.957Z,35.65
2023-01-30T21:01:12.976Z,35.65
2023-01-30T21:21:12.932Z,35.65
2023-01-30T21:41:12.912Z,35.64
2023-01-30T22:01:12.929Z,35.64
2023-01-30T22:21:12.890Z,35.64
2023-01-30T22:41:12.848Z,35.64
2023-01-30T23:01:12.882Z,35.64
2023-01-30T23:41:12.599Z,35.64
